CVB weather

Castroville Municipal Airport
Castroville, Texas, United States

Public forecast

Using degrees Fahrenheit for public forecast. Weather courtesy of forecast.io.

Current aviation weather report (METAR) for Castroville Municipal Airport

Retrieved 2020/07/11 13:35 UTC (10 minutes ago):

KCVB 111335Z AUTO 12004KT 10SM SCT011 27/23 A3008 RMK AO2 T02730228

Closest aviation forecast (TAF) to Castroville Municipal Airport

Closest forecast is Lackland Air Force Base, 14.3 nm (26.6 km) E. Retrieved 2020/07/11 10:06 UTC (4 hours ago):

TAF KSKF 111000Z 1110/1216 18008KT 9999 BKN014 QNH2998INS TEMPO 1110/1114 SCT014 BECMG 1114/1115 17010KT 9999 FEW025 FEW200 QNH2988INS TX40/1122Z TN25/1112Z